Time;durP1;ratioP1;P1;durP2;ratioP2;P2;SDS_P1;SDS_P2;PMS_P1;PMS_P2;Temp;Humidity;BMP_temperature;BMP_pressure;BME280_temperature;BME280_humidity;BME280_pressure;Samples;Min_cycle;Max_cycle;Signal;HPM_P1;HPM_P2
2023/01/17 00:01:43;;;;;;;16.07;14.23;;;6.10;99.90;;;;;;4974618;28;20050;-84
2023/01/17 00:09:51;;;;;;;15.60;14.13;;;5.80;99.90;;;;;;4976969;28;20033;-84
2023/01/17 00:12:19;;;;;;;16.60;14.60;;;5.60;99.90;;;;;;4978624;28;20055;-84
2023/01/17 00:14:45;;;;;;;21.03;16.20;;;5.60;99.90;;;;;;4974441;28;20047;-84
2023/01/17 00:17:12;;;;;;;17.33;15.57;;;5.70;99.90;;;;;;4971787;28;20116;-84
2023/01/17 01:34:33;;;;;;;16.47;15.17;;;5.30;99.90;;;;;;5000605;28;20045;-83
2023/01/17 01:36:59;;;;;;;17.30;15.60;;;5.30;99.90;;;;;;4993789;28;20034;-83
2023/01/17 01:39:25;;;;;;;21.77;15.40;;;5.40;99.90;;;;;;5002835;28;20034;-83
2023/01/17 01:41:51;;;;;;;18.23;16.43;;;5.40;99.90;;;;;;4994598;28;20053;-83
2023/01/17 01:44:42;;;;;;;20.17;16.80;;;5.50;99.90;;;;;;4994642;28;20472;-83
2023/01/17 01:47:09;;;;;;;26.77;20.83;;;5.70;99.90;;;;;;4993595;28;20045;-84
2023/01/17 01:49:35;;;;;;;20.50;18.37;;;5.90;99.90;;;;;;4993466;28;20465;-84
2023/01/17 01:52:02;;;;;;;22.10;19.70;;;6.00;99.90;;;;;;4977162;28;20041;-83
2023/01/17 01:54:42;;;;;;;28.07;22.53;;;6.00;99.90;;;;;;4993157;28;20486;-83
2023/01/17 01:57:09;;;;;;;22.15;20.20;;;6.20;99.90;;;;;;4962103;28;20034;-83
2023/01/17 01:59:41;;;;;;;19.60;18.00;;;6.30;99.90;;;;;;4992973;28;20034;-84
2023/01/17 02:02:07;;;;;;;17.37;15.77;;;6.30;99.90;;;;;;4976485;28;20057;-83
2023/01/17 02:04:33;;;;;;;17.57;15.93;;;6.00;99.90;;;;;;5008591;28;20034;-83
2023/01/17 02:07:07;;;;;;;17.07;15.60;;;5.70;99.90;;;;;;5008807;28;20042;-83
2023/01/17 02:09:33;;;;;;;17.00;15.20;;;5.50;99.90;;;;;;5008698;28;20467;-83
2023/01/17 02:12:00;;;;;;;16.47;15.03;;;5.50;99.90;;;;;;5024154;28;20038;-82
2023/01/17 02:14:26;;;;;;;16.13;14.83;;;5.40;99.90;;;;;;5009154;28;20038;-83
2023/01/17 02:17:13;;;;;;;15.67;14.53;;;5.40;99.90;;;;;;5009072;28;20034;-83
2023/01/17 02:19:53;;;;;;;16.20;14.70;;;5.50;99.90;;;;;;4993947;28;20030;-82
2023/01/17 02:22:57;;;;;;;16.97;15.43;;;5.40;99.90;;;;;;5010373;28;20041;-82
2023/01/17 02:26:01;;;;;;;17.53;16.07;;;5.40;99.90;;;;;;4994080;28;20489;-83
2023/01/17 02:29:00;;;;;;;19.07;16.93;;;5.40;99.90;;;;;;4974386;28;20046;-82
2023/01/17 02:31:30;;;;;;;15.63;14.53;;;5.50;99.90;;;;;;4988102;28;20045;-83
2023/01/17 02:34:09;;;;;;;18.90;16.70;;;5.50;99.90;;;;;;4977093;28;20383;-82
2023/01/17 02:36:37;;;;;;;18.53;16.53;;;5.50;99.90;;;;;;4977125;28;20030;-82
2023/01/17 02:39:58;;;;;;;18.43;16.93;;;5.70;99.90;;;;;;4991559;28;20439;-82
2023/01/17 02:42:35;;;;;;;17.70;16.08;;;5.70;99.90;;;;;;4982591;28;20050;-82
2023/01/17 02:45:01;;;;;;;17.40;15.70;;;5.90;99.90;;;;;;5007631;28;20037;-82
2023/01/17 02:47:28;;;;;;;17.93;16.27;;;6.00;99.90;;;;;;5024459;28;20045;-83
2023/01/17 02:50:04;;;;;;;18.10;16.40;;;5.90;99.90;;;;;;5009274;28;20046;-82
2023/01/17 02:52:52;;;;;;;17.10;15.80;;;5.80;99.90;;;;;;4992498;28;20518;-82
2023/01/17 02:55:46;;;;;;;17.37;15.77;;;5.70;99.90;;;;;;4993088;28;20045;-82
2023/01/17 02:58:27;;;;;;;18.27;16.70;;;5.70;99.90;;;;;;4977737;28;20037;-82
2023/01/17 03:01:21;;;;;;;17.38;15.77;;;5.70;99.90;;;;;;4993211;28;20364;-82
2023/01/17 03:03:53;;;;;;;17.20;15.60;;;5.70;99.90;;;;;;4985664;28;20038;-82
2023/01/17 03:06:38;;;;;;;17.70;16.30;;;5.60;99.90;;;;;;4989425;28;20514;-82
2023/01/17 03:09:04;;;;;;;17.03;15.47;;;5.60;99.90;;;;;;4990752;28;20030;-82
2023/01/17 03:11:30;;;;;;;18.00;16.60;;;5.70;99.90;;;;;;4997114;28;20053;-82
2023/01/17 03:13:57;;;;;;;17.83;16.37;;;5.70;99.90;;;;;;4990467;28;20038;-83
2023/01/17 03:16:24;;;;;;;18.80;16.83;;;5.80;99.90;;;;;;4989092;28;20045;-83
2023/01/17 03:18:52;;;;;;;17.17;15.83;;;5.90;99.90;;;;;;5023518;28;20041;-82
2023/01/17 03:21:19;;;;;;;17.87;16.07;;;6.00;99.90;;;;;;4992425;28;20077;-82
2023/01/17 03:23:45;;;;;;;17.67;16.10;;;6.20;99.90;;;;;;4990197;28;20037;-82
2023/01/17 03:26:11;;;;;;;18.83;17.43;;;6.10;99.90;;;;;;4974637;28;20037;-82
2023/01/17 03:28:37;;;;;;;18.63;17.37;;;6.00;99.90;;;;;;5008459;28;20419;-83
2023/01/17 03:31:03;;;;;;;18.60;17.13;;;5.90;99.90;;;;;;4997340;28;20038;-82
2023/01/17 03:33:29;;;;;;;18.17;16.33;;;5.90;99.90;;;;;;4990131;28;20399;-83
2023/01/17 03:35:58;;;;;;;17.87;16.27;;;6.00;99.90;;;;;;4991262;28;20042;-82
2023/01/17 03:38:25;;;;;;;19.10;17.60;;;6.00;99.90;;;;;;4991688;28;20498;-82
2023/01/17 03:40:51;;;;;;;19.10;17.40;;;6.00;99.90;;;;;;4990047;28;20522;-82
2023/01/17 03:43:17;;;;;;;19.03;17.40;;;5.90;99.90;;;;;;4991501;28;20034;-82
2023/01/17 03:45:43;;;;;;;18.50;16.70;;;5.90;99.90;;;;;;4972078;28;20045;-82
2023/01/17 03:48:09;;;;;;;18.43;16.70;;;6.00;99.90;;;;;;4973611;28;20464;-82
2023/01/17 03:50:35;;;;;;;18.60;16.87;;;6.00;99.90;;;;;;4982596;28;20054;-82
2023/01/17 03:53:02;;;;;;;19.93;18.17;;;6.20;99.90;;;;;;4973424;28;20460;-82
2023/01/17 03:55:28;;;;;;;19.37;17.87;;;6.30;99.90;;;;;;4976568;28;20487;-82
2023/01/17 03:57:54;;;;;;;18.27;16.97;;;6.40;99.90;;;;;;4990833;28;20042;-82
2023/01/17 04:00:20;;;;;;;19.47;18.17;;;6.20;99.90;;;;;;4990526;28;20042;-82
2023/01/17 04:02:46;;;;;;;18.73;17.23;;;6.20;99.90;;;;;;5010904;28;20033;-82
2023/01/17 04:05:12;;;;;;;18.87;17.20;;;6.20;99.90;;;;;;5013726;28;20492;-82
2023/01/17 04:07:38;;;;;;;16.27;14.60;;;6.20;99.90;;;;;;5008562;28;20029;-82
2023/01/17 04:10:05;;;;;;;15.63;14.50;;;6.30;99.90;;;;;;5010609;28;20483;-82
2023/01/17 04:12:31;;;;;;;14.33;13.40;;;6.30;99.90;;;;;;5011570;28;20369;-82
2023/01/17 04:14:57;;;;;;;13.17;12.13;;;6.30;99.90;;;;;;5011738;28;20035;-82
2023/01/17 04:17:23;;;;;;;12.90;11.90;;;6.40;99.90;;;;;;4995691;28;20035;-82
2023/01/17 04:19:49;;;;;;;11.70;11.00;;;6.40;99.90;;;;;;5002122;28;20477;-82
2023/01/17 04:22:16;;;;;;;12.17;11.47;;;6.20;99.90;;;;;;4994557;28;20042;-82
2023/01/17 04:24:42;;;;;;;12.00;11.30;;;6.20;99.90;;;;;;4994376;28;20038;-81
2023/01/17 04:27:12;;;;;;;12.67;12.03;;;6.20;99.90;;;;;;5026442;28;20403;-82
2023/01/17 04:29:39;;;;;;;12.27;11.57;;;6.30;99.90;;;;;;5007762;28;20428;-82
2023/01/17 04:32:05;;;;;;;11.20;10.60;;;6.30;99.90;;;;;;4961498;28;20050;-82
2023/01/17 04:34:31;;;;;;;11.23;10.63;;;6.30;99.90;;;;;;4995559;28;20468;-82
2023/01/17 04:36:57;;;;;;;11.30;10.50;;;6.40;99.90;;;;;;4994877;28;20045;-82
2023/01/17 04:39:23;;;;;;;11.30;10.70;;;6.30;99.90;;;;;;4998375;28;20100;-82
2023/01/17 04:41:49;;;;;;;12.57;11.77;;;6.20;99.90;;;;;;5001370;28;20038;-82
2023/01/17 04:44:15;;;;;;;12.57;11.87;;;6.30;99.90;;;;;;5011281;28;20034;-82
2023/01/17 04:46:42;;;;;;;12.50;11.80;;;6.30;99.90;;;;;;4977280;28;20034;-81
2023/01/17 04:49:08;;;;;;;12.00;11.33;;;6.40;99.90;;;;;;4994735;28;20045;-81
2023/01/17 04:51:34;;;;;;;11.97;11.33;;;6.30;99.90;;;;;;4994187;28;20030;-82
2023/01/17 04:54:00;;;;;;;12.57;11.87;;;6.30;99.90;;;;;;4994376;28;20606;-81
2023/01/17 04:56:26;;;;;;;11.37;10.77;;;6.40;99.90;;;;;;5010939;28;20022;-81
2023/01/17 04:58:52;;;;;;;12.03;11.30;;;6.30;99.90;;;;;;4996381;28;20034;-82
2023/01/17 05:01:18;;;;;;;12.37;11.67;;;6.30;99.90;;;;;;4975963;28;20030;-82
2023/01/17 05:03:44;;;;;;;11.70;11.00;;;6.20;99.90;;;;;;5026996;28;20030;-82
2023/01/17 05:06:10;;;;;;;11.23;10.63;;;6.30;99.90;;;;;;5026930;28;20026;-81
2023/01/17 05:08:36;;;;;;;11.50;10.90;;;6.20;99.90;;;;;;5009942;28;20035;-81
2023/01/17 05:11:03;;;;;;;12.03;11.33;;;6.30;99.90;;;;;;4977704;28;20037;-82
2023/01/17 05:13:29;;;;;;;12.17;11.40;;;6.30;99.90;;;;;;4994831;28;20029;-82
2023/01/17 05:15:56;;;;;;;12.80;11.80;;;6.10;99.90;;;;;;4956498;28;20034;-84
2023/01/17 05:18:22;;;;;;;12.57;11.87;;;6.20;99.90;;;;;;4990231;28;20027;-83
2023/01/17 05:20:49;;;;;;;13.13;12.23;;;6.20;99.90;;;;;;4993399;28;20519;-83
2023/01/17 05:23:15;;;;;;;11.93;11.30;;;6.20;99.90;;;;;;5000160;28;20033;-83
2023/01/17 05:25:43;;;;;;;11.70;11.10;;;6.20;99.90;;;;;;4974671;28;20475;-81
2023/01/17 05:28:09;;;;;;;10.87;10.27;;;6.10;99.90;;;;;;4993718;28;20054;-81
2023/01/17 05:30:35;;;;;;;15.20;11.30;;;5.80;99.90;;;;;;5016725;28;20506;-81
2023/01/17 05:33:02;;;;;;;10.57;9.97;;;5.50;99.90;;;;;;5010092;28;20034;-82
2023/01/17 05:35:29;;;;;;;11.03;10.43;;;5.50;99.90;;;;;;4997543;28;20050;-82
2023/01/17 05:37:55;;;;;;;11.10;10.50;;;5.30;99.90;;;;;;4993953;28;20042;-83
2023/01/17 05:40:25;;;;;;;11.07;10.50;;;5.20;99.90;;;;;;5027895;28;20514;-82
2023/01/17 05:42:53;;;;;;;10.95;10.25;;;5.20;99.90;;;;;;5009281;28;20030;-82
2023/01/17 05:45:20;;;;;;;11.93;11.33;;;5.30;99.90;;;;;;5009701;28;20027;-82
2023/01/17 05:47:47;;;;;;;10.43;9.93;;;5.40;99.90;;;;;;4992084;28;20042;-82
2023/01/17 05:50:15;;;;;;;12.10;11.30;;;5.50;99.90;;;;;;4990053;28;20026;-82
2023/01/17 05:52:47;;;;;;;11.57;10.97;;;5.50;99.90;;;;;;4975351;28;20487;-81
2023/01/17 05:55:14;;;;;;;11.20;10.60;;;5.40;99.90;;;;;;5006044;28;20521;-82
2023/01/17 05:57:40;;;;;;;11.80;11.20;;;5.60;99.90;;;;;;5025870;28;20034;-83
2023/01/17 06:00:07;;;;;;;11.30;10.80;;;5.60;99.90;;;;;;5025318;28;20046;-83
2023/01/17 06:02:33;;;;;;;11.77;11.17;;;5.50;99.90;;;;;;5009632;28;20035;-81
2023/01/17 06:04:59;;;;;;;12.80;11.93;;;5.60;99.90;;;;;;5012166;28;20026;-82
2023/01/17 06:07:25;;;;;;;11.53;10.83;;;5.60;99.90;;;;;;4994214;28;20037;-81
2023/01/17 06:09:51;;;;;;;11.77;11.17;;;5.60;99.90;;;;;;4993586;28;20038;-82
2023/01/17 06:12:17;;;;;;;11.80;11.20;;;5.70;99.90;;;;;;5014530;28;20863;-82
2023/01/17 06:14:43;;;;;;;11.00;10.40;;;5.60;99.90;;;;;;5021452;28;20058;-81
2023/01/17 06:17:09;;;;;;;11.67;11.07;;;5.30;99.90;;;;;;5011235;28;20034;-82
2023/01/17 06:19:35;;;;;;;11.60;11.00;;;5.20;99.90;;;;;;5012354;28;20030;-81
2023/01/17 06:22:03;;;;;;;12.93;12.23;;;5.20;99.90;;;;;;4976265;28;20057;-82
2023/01/17 06:24:29;;;;;;;12.27;11.57;;;5.20;99.90;;;;;;5026472;28;20475;-82
2023/01/17 06:26:56;;;;;;;12.40;11.77;;;5.20;99.90;;;;;;5008182;28;20035;-82
2023/01/17 06:29:22;;;;;;;13.00;12.30;;;5.20;99.90;;;;;;5007814;28;20045;-82
2023/01/17 06:31:48;;;;;;;12.57;11.77;;;5.30;99.90;;;;;;5008330;28;20042;-82
2023/01/17 06:34:14;;;;;;;12.47;11.47;;;5.30;99.90;;;;;;5024700;28;20042;-81
2023/01/17 06:36:40;;;;;;;16.40;14.90;;;5.20;99.90;;;;;;5026401;28;20361;-81
2023/01/17 06:39:08;;;;;;;14.90;13.70;;;5.20;99.90;;;;;;5025283;28;20038;-82
2023/01/17 06:41:34;;;;;;;39.00;26.97;;;5.10;99.90;;;;;;5007930;28;20031;-82
2023/01/17 06:44:00;;;;;;;26.90;21.00;;;5.10;99.90;;;;;;5027625;28;20037;-80
2023/01/17 06:46:26;;;;;;;47.53;29.57;;;5.20;99.90;;;;;;4985749;28;20402;-83
2023/01/17 06:48:52;;;;;;;16.27;14.87;;;5.10;99.90;;;;;;5003199;28;20026;-82
2023/01/17 06:51:18;;;;;;;12.87;11.90;;;5.10;99.90;;;;;;4992165;28;20034;-81
2023/01/17 06:53:46;;;;;;;11.47;10.80;;;4.90;99.90;;;;;;4993403;28;20046;-85
2023/01/17 06:56:12;;;;;;;11.73;10.90;;;4.90;99.90;;;;;;4985144;28;20046;-82
2023/01/17 06:58:39;;;;;;;18.17;16.37;;;4.80;99.90;;;;;;5006894;28;20038;-82
2023/01/17 07:01:09;;;;;;;84.47;48.20;;;4.80;99.90;;;;;;4991803;28;20034;-81
2023/01/17 07:03:35;;;;;;;24.00;19.93;;;4.90;99.90;;;;;;5009419;28;20030;-82
2023/01/17 07:06:01;;;;;;;26.30;21.37;;;5.00;99.90;;;;;;4991996;28;20069;-83
2023/01/17 07:08:27;;;;;;;15.30;14.17;;;5.10;99.90;;;;;;5021628;28;20032;-81
2023/01/17 07:11:00;;;;;;;15.10;13.80;;;5.10;99.90;;;;;;5007947;28;20038;-81
2023/01/17 07:13:27;;;;;;;32.27;20.53;;;5.10;99.90;;;;;;5004256;28;20026;-80
2023/01/17 07:15:53;;;;;;;18.37;16.43;;;5.10;99.90;;;;;;5007348;28;20407;-80
2023/01/17 07:18:22;;;;;;;15.87;12.57;;;5.10;99.90;;;;;;4992052;28;20468;-80
2023/01/17 07:20:51;;;;;;;14.30;12.87;;;4.90;99.90;;;;;;4982836;28;20031;-82
2023/01/17 07:23:18;;;;;;;47.93;22.60;;;4.80;99.90;;;;;;4969592;28;20042;-81
2023/01/17 07:25:51;;;;;;;15.97;14.03;;;4.70;99.90;;;;;;5022930;28;20019;-82
2023/01/17 07:28:17;;;;;;;31.27;16.93;;;4.60;99.90;;;;;;5024215;28;20054;-81
2023/01/17 07:30:43;;;;;;;56.37;18.60;;;4.60;99.90;;;;;;5005198;28;20039;-82
2023/01/17 07:33:09;;;;;;;28.73;16.17;;;4.60;99.90;;;;;;5005416;28;20037;-82
2023/01/17 07:35:36;;;;;;;18.27;13.40;;;4.50;99.90;;;;;;5005495;28;20042;-81
2023/01/17 07:38:02;;;;;;;17.33;14.13;;;4.40;99.90;;;;;;5006759;28;20026;-82
2023/01/17 07:40:28;;;;;;;14.23;13.03;;;4.30;99.90;;;;;;5007545;28;20499;-83
2023/01/17 07:43:00;;;;;;;19.67;15.70;;;4.40;99.90;;;;;;5024112;28;20034;-81
2023/01/17 07:45:26;;;;;;;17.23;15.20;;;4.40;99.90;;;;;;5020681;28;20038;-81
2023/01/17 07:47:56;;;;;;;16.23;14.57;;;4.40;99.90;;;;;;4990826;28;20042;-81
2023/01/17 07:50:22;;;;;;;19.33;17.43;;;4.30;99.90;;;;;;4972283;28;20034;-85
2023/01/17 07:52:51;;;;;;;22.43;17.97;;;4.40;99.90;;;;;;4988095;28;20038;-82
2023/01/17 07:55:18;;;;;;;40.30;24.80;;;4.60;99.90;;;;;;5017305;28;20397;-80
2023/01/17 07:57:48;;;;;;;16.37;14.97;;;4.60;99.90;;;;;;5024287;28;20185;-80
2023/01/17 08:00:14;;;;;;;20.70;18.52;;;4.70;99.90;;;;;;5007322;28;20030;-81
2023/01/17 08:02:41;;;;;;;20.43;18.40;;;4.70;99.90;;;;;;5024051;28;20025;-80
2023/01/17 08:05:07;;;;;;;13.10;12.20;;;4.70;99.90;;;;;;4990902;28;20026;-81
2023/01/17 08:07:33;;;;;;;15.73;14.40;;;4.60;99.90;;;;;;5023258;28;20030;-80
2023/01/17 08:10:00;;;;;;;21.43;17.63;;;4.60;99.90;;;;;;5007496;28;20035;-80
2023/01/17 08:12:28;;;;;;;38.77;25.40;;;4.60;99.90;;;;;;5006356;28;20035;-82
2023/01/17 08:14:54;;;;;;;30.63;21.97;;;4.60;99.90;;;;;;4991263;28;20042;-80
2023/01/17 08:17:20;;;;;;;20.40;18.27;;;4.70;99.90;;;;;;5022206;28;20045;-80
2023/01/17 08:19:50;;;;;;;21.47;19.40;;;4.60;99.90;;;;;;5006870;28;20049;-81
2023/01/17 08:22:16;;;;;;;34.93;25.67;;;4.60;99.90;;;;;;4975539;28;20030;-81
2023/01/17 08:24:43;;;;;;;25.33;21.40;;;4.70;99.90;;;;;;4988722;28;20042;-83
2023/01/17 08:27:09;;;;;;;17.00;15.27;;;4.80;99.90;;;;;;4977769;28;20043;-84
2023/01/17 08:29:35;;;;;;;16.23;14.67;;;4.70;99.90;;;;;;4987668;28;20480;-82
2023/01/17 08:32:02;;;;;;;18.27;16.67;;;4.50;99.90;;;;;;5003286;28;20042;-83
2023/01/17 08:34:28;;;;;;;17.87;16.07;;;4.40;99.90;;;;;;4988487;28;20496;-84
2023/01/17 08:36:54;;;;;;;27.87;22.33;;;4.50;99.90;;;;;;4971981;28;20353;-83
2023/01/17 08:39:20;;;;;;;16.40;15.00;;;4.60;99.90;;;;;;4978399;28;20030;-83
2023/01/17 08:41:46;;;;;;;16.30;15.00;;;4.60;99.90;;;;;;5006443;28;20031;-83
2023/01/17 08:44:14;;;;;;;19.37;17.47;;;4.70;99.90;;;;;;5006716;28;20038;-84
2023/01/17 08:46:42;;;;;;;16.47;15.17;;;4.80;99.90;;;;;;5006819;28;20026;-84
2023/01/17 08:49:09;;;;;;;17.17;15.67;;;4.90;99.90;;;;;;5007315;28;20027;-84
2023/01/17 08:51:35;;;;;;;13.70;12.90;;;5.00;99.90;;;;;;5007612;28;20037;-84
2023/01/17 08:54:01;;;;;;;12.60;11.80;;;5.20;99.90;;;;;;5026779;28;20057;-84
2023/01/17 08:56:27;;;;;;;14.30;13.40;;;5.20;99.90;;;;;;5026628;28;20042;-84
2023/01/17 08:58:53;;;;;;;12.90;11.90;;;5.20;99.90;;;;;;5027064;28;20031;-81
2023/01/17 09:01:19;;;;;;;14.00;13.00;;;5.30;99.90;;;;;;5026957;28;20046;-85
2023/01/17 09:03:47;;;;;;;15.63;14.17;;;5.20;99.90;;;;;;5027350;28;20030;-85
2023/01/17 09:06:14;;;;;;;14.67;13.67;;;5.20;99.90;;;;;;5010726;28;20034;-86
2023/01/17 09:08:40;;;;;;;16.07;14.77;;;5.20;99.90;;;;;;5006111;28;20042;-83
2023/01/17 09:11:08;;;;;;;13.83;12.83;;;5.20;99.90;;;;;;4999375;28;20042;-85
2023/01/17 09:13:34;;;;;;;16.40;15.10;;;5.10;99.90;;;;;;5007999;28;20031;-86
2023/01/17 09:16:01;;;;;;;17.83;16.20;;;5.00;99.90;;;;;;5026633;28;20037;-86
2023/01/17 09:18:27;;;;;;;12.23;11.50;;;5.00;99.90;;;;;;5010361;28;20034;-86
2023/01/17 09:20:54;;;;;;;18.30;16.70;;;5.00;99.90;;;;;;5019962;28;20033;-85
2023/01/17 09:23:24;;;;;;;15.43;14.43;;;5.00;99.90;;;;;;4995467;28;20510;-88
2023/01/17 09:25:57;;;;;;;12.77;12.07;;;5.30;99.90;;;;;;5022200;28;20492;-84
2023/01/17 09:28:24;;;;;;;15.00;13.90;;;5.30;99.90;;;;;;4991824;28;20205;-83
2023/01/17 09:30:50;;;;;;;13.63;12.70;;;5.10;99.90;;;;;;4993027;28;20049;-83
2023/01/17 09:33:16;;;;;;;20.73;18.73;;;5.00;99.90;;;;;;4993420;28;20125;-84
2023/01/17 09:35:43;;;;;;;14.23;13.13;;;5.10;99.90;;;;;;4994290;28;20046;-84
2023/01/17 09:38:09;;;;;;;13.47;12.47;;;5.00;99.90;;;;;;4991933;28;20049;-84
2023/01/17 09:40:37;;;;;;;11.87;11.17;;;4.80;99.90;;;;;;4994766;28;20395;-84
2023/01/17 09:43:05;;;;;;;12.43;11.60;;;4.90;99.90;;;;;;4958671;28;20057;-82
2023/01/17 09:45:32;;;;;;;12.50;11.80;;;4.90;99.90;;;;;;4975603;28;20026;-83
2023/01/17 09:47:59;;;;;;;12.07;11.33;;;4.90;99.90;;;;;;4998842;28;20475;-85
2023/01/17 09:50:32;;;;;;;11.97;11.17;;;5.00;99.90;;;;;;5007381;28;20034;-84
2023/01/17 09:53:06;;;;;;;11.33;10.63;;;5.20;99.90;;;;;;5030862;28;20490;-85
2023/01/17 09:56:02;;;;;;;12.60;11.70;;;5.20;99.90;;;;;;5009364;28;20058;-85
2023/01/17 09:58:47;;;;;;;11.90;11.20;;;5.30;99.90;;;;;;5026402;28;20042;-85
2023/01/17 10:01:32;;;;;;;11.40;10.80;;;5.20;99.90;;;;;;5012202;28;20033;-85
2023/01/17 10:04:16;;;;;;;115.20;15.57;;;5.30;99.90;;;;;;5012565;28;20029;-85
2023/01/17 10:07:03;;;;;;;12.13;11.33;;;5.30;99.90;;;;;;4991758;28;20022;-84
2023/01/17 10:09:38;;;;;;;11.07;10.47;;;5.30;99.90;;;;;;4989843;28;20034;-85
2023/01/17 10:12:19;;;;;;;12.20;11.50;;;5.30;99.90;;;;;;4994656;28;20436;-87
2023/01/17 10:14:54;;;;;;;;;;;5.40;99.90;;;;;;4991885;28;20054;-85
2023/01/17 10:17:39;;;;;;;14.57;13.17;;;5.30;99.90;;;;;;5014210;28;19921;-85
2023/01/17 10:20:53;;;;;;;12.57;11.77;;;5.40;99.90;;;;;;4994184;28;20034;-85
2023/01/17 10:23:31;;;;;;;42.53;14.93;;;5.50;99.90;;;;;;4958665;28;20046;-85
2023/01/17 10:25:59;;;;;;;15.70;14.50;;;5.60;99.90;;;;;;4972277;28;20034;-85
2023/01/17 10:28:38;;;;;;;13.93;12.77;;;5.80;99.90;;;;;;4956068;28;20488;-84
2023/01/17 10:31:31;;;;;;;12.03;11.23;;;5.80;99.90;;;;;;4961609;28;20046;-90
2023/01/17 10:34:11;;;;;;;13.07;12.27;;;6.00;99.90;;;;;;4963643;28;20042;-87
2023/01/17 10:36:42;;;;;;;12.97;12.13;;;6.10;99.90;;;;;;4975758;28;20037;-86
2023/01/17 10:39:23;;;;;;;13.43;12.53;;;6.10;99.90;;;;;;4976931;28;20034;-85
2023/01/17 10:41:57;;;;;;;;;;;6.10;99.90;;;;;;4956548;28;20114;-86
2023/01/17 10:44:31;;;;;;;10.57;9.83;;;6.20;99.90;;;;;;4956989;28;19906;-87
2023/01/17 10:47:09;;;;;;;157.63;16.53;;;6.10;99.90;;;;;;4954959;28;20163;-85
2023/01/17 10:49:43;;;;;;;12.73;11.93;;;6.00;99.90;;;;;;4956373;28;20482;-86
2023/01/17 10:52:30;;;;;;;13.57;12.67;;;6.00;99.90;;;;;;4973486;28;20066;-84
2023/01/17 10:55:07;;;;;;;14.33;13.23;;;6.10;99.90;;;;;;4957976;28;20057;-84
2023/01/17 10:57:44;;;;;;;14.57;13.57;;;6.10;99.90;;;;;;4955468;28;20046;-86
2023/01/17 11:00:42;;;;;;;12.53;11.83;;;6.20;99.90;;;;;;4963575;28;20702;-87
2023/01/17 11:03:12;;;;;;;13.30;12.40;;;6.20;99.90;;;;;;5016647;28;20030;-86
2023/01/17 11:05:39;;;;;;;13.90;12.93;;;6.30;99.90;;;;;;5009639;28;20050;-86
2023/01/17 11:08:12;;;;;;;21.10;18.63;;;6.30;99.90;;;;;;5010660;28;20042;-88
2023/01/17 11:10:48;;;;;;;18.30;16.70;;;6.30;99.90;;;;;;5023300;28;20025;-86
2023/01/17 11:13:25;;;;;;;15.90;14.60;;;6.30;99.90;;;;;;4993305;28;20022;-88
2023/01/17 11:15:56;;;;;;;13.70;12.77;;;6.40;99.90;;;;;;4990202;28;20546;-85
2023/01/17 11:18:23;;;;;;;;;;;6.40;99.90;;;;;;5014442;28;20049;-85
2023/01/17 11:20:49;;;;;;;16.13;14.93;;;6.50;99.90;;;;;;5011653;28;19909;-86
2023/01/17 11:23:32;;;;;;;21.63;16.13;;;6.60;99.90;;;;;;4993515;28;20047;-84
2023/01/17 11:26:01;;;;;;;57.40;16.87;;;6.60;99.90;;;;;;5031112;28;20040;-87
2023/01/17 11:28:31;;;;;;;18.70;16.50;;;6.70;99.90;;;;;;5008434;28;20042;-86
2023/01/17 11:30:58;;;;;;;23.23;18.17;;;6.70;99.90;;;;;;5022082;28;20519;-89
2023/01/17 11:33:44;;;;;;;45.63;17.70;;;6.60;99.90;;;;;;4998390;28;20031;-88
2023/01/17 11:36:15;;;;;;;18.43;16.67;;;6.60;99.90;;;;;;5008380;28;20035;-84
2023/01/17 11:38:49;;;;;;;16.92;15.15;;;6.70;99.90;;;;;;5008784;28;20070;-88
2023/01/17 11:41:19;;;;;;;36.23;22.53;;;6.70;99.90;;;;;;4991781;28;20041;-87
2023/01/17 11:43:52;;;;;;;88.43;38.33;;;6.60;99.90;;;;;;5018966;28;20034;-83
2023/01/17 11:46:19;;;;;;;55.23;30.63;;;6.60;99.90;;;;;;4975985;28;20034;-87
2023/01/17 11:48:53;;;;;;;23.43;20.00;;;6.70;99.90;;;;;;4976214;28;20518;-86
2023/01/17 11:51:25;;;;;;;15.70;14.60;;;6.70;99.90;;;;;;5006531;28;20491;-85
2023/01/17 11:53:52;;;;;;;15.20;14.13;;;6.70;99.90;;;;;;4988151;28;20043;-87
2023/01/17 11:56:35;;;;;;;15.97;14.80;;;6.70;99.90;;;;;;5004958;28;20045;-86
2023/01/17 11:59:25;;;;;;;13.90;13.10;;;6.70;99.90;;;;;;5033957;28;20030;-86
2023/01/17 12:01:54;;;;;;;13.53;12.73;;;6.60;99.90;;;;;;5008565;28;20042;-85
2023/01/17 12:04:46;;;;;;;14.00;13.10;;;6.60;99.90;;;;;;5023062;28;20024;-83
2023/01/17 12:07:31;;;;;;;36.80;16.97;;;6.70;99.90;;;;;;5008523;28;20038;-85
2023/01/17 12:10:38;;;;;;;19.40;17.70;;;6.70;99.90;;;;;;5024159;28;20057;-85
2023/01/17 12:16:30;;;;;;;16.50;15.30;;;6.60;99.90;;;;;;4986932;28;20038;-86
2023/01/17 12:19:19;;;;;;;19.92;17.85;;;6.60;99.90;;;;;;4992185;28;20030;-88
2023/01/17 12:22:09;;;;;;;22.97;18.07;;;6.60;99.90;;;;;;4979160;28;20042;-87
2023/01/17 12:25:00;;;;;;;16.45;15.05;;;6.70;99.90;;;;;;4991882;28;20034;-88
2023/01/17 12:27:53;;;;;;;14.35;13.35;;;6.70;99.90;;;;;;5019886;28;20043;-83
2023/01/17 12:30:24;;;;;;;14.30;13.30;;;6.90;99.90;;;;;;5017464;28;20026;-84
2023/01/17 12:32:53;;;;;;;14.40;13.30;;;6.90;99.90;;;;;;4979113;28;20472;-82
2023/01/17 12:35:39;;;;;;;17.00;15.70;;;6.90;99.90;;;;;;4976791;28;20042;-85
2023/01/17 12:38:08;;;;;;;16.20;15.10;;;6.90;99.90;;;;;;4990654;28;20030;-85
2023/01/17 12:40:41;;;;;;;15.37;14.37;;;7.00;99.90;;;;;;5013333;28;20038;-86
2023/01/17 12:43:21;;;;;;;12.63;11.63;;;7.10;99.90;;;;;;4997218;28;20057;-85
2023/01/17 12:45:48;;;;;;;13.87;12.83;;;7.10;99.90;;;;;;4993285;28;20048;-84
2023/01/17 12:48:18;;;;;;;13.10;12.30;;;7.10;99.90;;;;;;4994369;28;20034;-83
2023/01/17 12:50:49;;;;;;;13.18;12.30;;;6.80;99.90;;;;;;4997469;28;20061;-87
2023/01/17 12:53:34;;;;;;;13.63;12.85;;;6.80;99.90;;;;;;4994228;28;20037;-81
2023/01/17 12:56:26;;;;;;;14.60;13.70;;;6.90;99.90;;;;;;4995826;28;20041;-82
2023/01/17 12:58:55;;;;;;;15.33;14.23;;;7.20;99.90;;;;;;5010740;28;20059;-80
2023/01/17 13:01:29;;;;;;;18.30;16.87;;;7.40;99.90;;;;;;5014766;28;20044;-81
2023/01/17 13:04:17;;;;;;;24.93;22.70;;;7.60;99.90;;;;;;5014220;28;20366;-86
2023/01/17 13:06:43;;;;;;;17.67;16.57;;;7.70;99.90;;;;;;4993034;28;20038;-87
2023/01/17 13:09:11;;;;;;;16.57;15.47;;;7.80;99.90;;;;;;5004394;28;20035;-84
2023/01/17 13:11:42;;;;;;;17.00;16.00;;;7.70;99.90;;;;;;4993692;28;20049;-84
2023/01/17 13:14:09;;;;;;;16.23;15.23;;;7.40;99.90;;;;;;5009079;28;20030;-85
2023/01/17 13:17:04;;;;;;;15.63;14.73;;;7.20;99.90;;;;;;5025314;28;20404;-84
2023/01/17 13:19:42;;;;;;;14.57;13.77;;;7.10;99.90;;;;;;5024284;28;20487;-84
2023/01/17 13:22:09;;;;;;;16.47;15.57;;;7.00;99.90;;;;;;4985228;28;20038;-84
2023/01/17 13:24:39;;;;;;;17.80;16.80;;;7.10;99.90;;;;;;4968007;28;20056;-84
2023/01/17 13:27:17;;;;;;;17.97;16.97;;;7.20;99.90;;;;;;4985507;28;20589;-84
2023/01/17 13:29:49;;;;;;;17.27;16.17;;;7.40;99.90;;;;;;4975366;28;20041;-84
2023/01/17 13:32:36;;;;;;;20.30;19.20;;;7.50;99.90;;;;;;4975111;28;20034;-83
2023/01/17 13:35:05;;;;;;;19.83;18.60;;;7.60;99.90;;;;;;4990382;28;20037;-82
2023/01/17 13:37:50;;;;;;;21.90;20.40;;;7.60;99.90;;;;;;5008671;28;20060;-84
2023/01/17 13:40:39;;;;;;;20.20;18.70;;;7.80;99.90;;;;;;4994264;28;20365;-84
2023/01/17 13:43:21;;;;;;;20.23;18.87;;;7.70;99.90;;;;;;4992352;28;20494;-84
2023/01/17 13:45:58;;;;;;;16.63;15.60;;;7.60;99.90;;;;;;4991663;28;20039;-85
2023/01/17 13:48:31;;;;;;;18.13;16.73;;;7.20;99.90;;;;;;5018510;28;20371;-85
2023/01/17 13:50:57;;;;;;;18.70;17.50;;;7.00;99.90;;;;;;4982894;28;20043;-85
2023/01/17 13:53:33;;;;;;;17.00;15.87;;;6.80;99.90;;;;;;4993094;28;20018;-85
2023/01/17 13:56:14;;;;;;;16.43;15.23;;;6.90;99.90;;;;;;5011032;28;20107;-84
2023/01/17 13:58:48;;;;;;;15.75;14.60;;;6.80;99.90;;;;;;5002072;28;20380;-84
2023/01/17 14:01:23;;;;;;;14.60;13.40;;;6.80;99.90;;;;;;4993765;28;20495;-85
2023/01/17 14:03:50;;;;;;;13.50;12.50;;;6.70;99.90;;;;;;4994213;28;20031;-84
2023/01/17 14:06:34;;;;;;;10.90;10.30;;;6.70;99.90;;;;;;5041926;28;20045;-85
2023/01/17 14:09:09;;;;;;;12.70;11.90;;;6.60;99.90;;;;;;4998522;28;20043;-84
2023/01/17 14:11:48;;;;;;;12.80;12.00;;;6.60;99.90;;;;;;5009313;28;20050;-84
2023/01/17 14:14:33;;;;;;;13.60;12.43;;;6.60;99.90;;;;;;5007570;28;20491;-85
2023/01/17 14:17:15;;;;;;;13.27;12.40;;;6.70;99.90;;;;;;5007597;28;20049;-85
2023/01/17 14:20:04;;;;;;;13.00;12.20;;;6.70;99.90;;;;;;4976474;28;20039;-85
2023/01/17 14:22:33;;;;;;;13.23;12.43;;;6.60;99.90;;;;;;4979940;28;20045;-85
2023/01/17 14:25:13;;;;;;;13.20;12.40;;;6.60;99.90;;;;;;4959851;28;20526;-84